createdAt,value
2017-12-23T00:00:33.451Z,1033.24
2017-12-23T00:01:42.275Z,1033.19
2017-12-23T00:02:51.405Z,1033.07
2017-12-23T00:04:00.230Z,1033.07
2017-12-23T00:05:09.055Z,1033.04
2017-12-23T00:06:17.879Z,1033.03
2017-12-23T00:07:26.706Z,1033.02
2017-12-23T00:08:35.805Z,1032.98
2017-12-23T00:09:44.780Z,1033.01
2017-12-23T00:10:53.608Z,1033.01
2017-12-23T00:12:02.431Z,1032.95
2017-12-23T00:13:11.255Z,1033.01
2017-12-23T00:14:20.085Z,1032.97
2017-12-23T00:15:28.905Z,1032.93
2017-12-23T00:16:37.713Z,1032.92
2017-12-23T00:17:46.536Z,1032.89
2017-12-23T00:18:55.360Z,1032.89
2017-12-23T00:20:04.188Z,1032.89
2017-12-23T00:21:13.313Z,1032.82
2017-12-23T00:22:22.410Z,1032.78
2017-12-23T00:23:31.236Z,1032.75
2017-12-23T00:24:40.062Z,1032.8
2017-12-23T00:25:48.889Z,1032.75
2017-12-23T00:26:57.865Z,1032.75
2017-12-23T00:28:06.693Z,1032.76
2017-12-23T00:29:15.519Z,1032.73
2017-12-23T00:30:24.344Z,1032.78
2017-12-23T00:31:33.173Z,1032.71
2017-12-23T00:32:42.148Z,1032.73
2017-12-23T00:33:50.976Z,1032.74
2017-12-23T00:34:59.800Z,1032.71
2017-12-23T00:36:08.629Z,1032.67
2017-12-23T00:37:17.454Z,1032.68
2017-12-23T00:38:26.431Z,1032.65
2017-12-23T00:39:35.255Z,1032.64
2017-12-23T00:40:44.083Z,1032.63
2017-12-23T00:41:52.912Z,1032.62
2017-12-23T00:43:01.736Z,1032.6
2017-12-23T00:44:10.560Z,1032.56
2017-12-23T00:45:19.386Z,1032.57
2017-12-23T00:46:28.224Z,1032.57
2017-12-23T00:47:37.054Z,1032.6
2017-12-23T00:48:45.881Z,1032.6
2017-12-23T00:49:55.035Z,1032.58
2017-12-23T00:51:03.862Z,1032.53
2017-12-23T00:52:12.689Z,1032.53
2017-12-23T00:53:21.515Z,1032.54
2017-12-23T00:54:30.342Z,1032.47
2017-12-23T00:55:39.415Z,1032.45
2017-12-23T00:56:48.243Z,1032.47
2017-12-23T00:57:57.342Z,1032.5
2017-12-23T00:59:06.168Z,1032.47
2017-12-23T01:00:14.996Z,1032.48
2017-12-23T01:01:23.923Z,1032.48
2017-12-23T01:02:32.748Z,1032.43
2017-12-23T01:03:41.575Z,1032.46
2017-12-23T01:04:50.400Z,1032.45
2017-12-23T01:05:59.228Z,1032.4
2017-12-23T01:07:08.053Z,1032.38
2017-12-23T01:08:17.203Z,1032.36
2017-12-23T01:09:26.029Z,1032.33
2017-12-23T01:10:34.853Z,1032.25
2017-12-23T01:11:43.681Z,1032.24
2017-12-23T01:12:52.504Z,1032.25
2017-12-23T01:14:01.331Z,1032.24
2017-12-23T01:15:10.160Z,1032.21
2017-12-23T01:16:18.985Z,1032.15
2017-12-23T01:17:27.810Z,1032.2
2017-12-23T01:18:36.938Z,1032.2
2017-12-23T01:19:45.763Z,1032.21
2017-12-23T01:20:54.589Z,1032.22
2017-12-23T01:22:03.417Z,1032.2
2017-12-23T01:23:12.242Z,1032.13
2017-12-23T01:24:21.070Z,1032.13
2017-12-23T01:25:29.899Z,1032.06
2017-12-23T01:26:38.996Z,1032.09
2017-12-23T01:27:47.823Z,1032.06
2017-12-23T01:28:56.651Z,1032.06
2017-12-23T01:30:06.007Z,1032.05
2017-12-23T01:31:14.834Z,1032.06
2017-12-23T01:32:23.938Z,1032.07
2017-12-23T01:33:32.763Z,1032.05
2017-12-23T01:34:41.589Z,1032.05
2017-12-23T01:35:50.668Z,1032.06
2017-12-23T01:36:59.496Z,1032.03
2017-12-23T01:38:08.599Z,1032.02
2017-12-23T01:39:17.700Z,1032.05
2017-12-23T01:40:26.528Z,1031.98
2017-12-23T01:41:35.354Z,1032.01
2017-12-23T01:42:44.182Z,1031.89
2017-12-23T01:43:53.284Z,1031.88
2017-12-23T01:45:02.110Z,1031.81
2017-12-23T01:46:10.936Z,1031.77
2017-12-23T01:47:19.863Z,1031.75
2017-12-23T01:48:28.689Z,1031.67
2017-12-23T01:49:37.517Z,1031.75
2017-12-23T01:50:46.342Z,1031.7
2017-12-23T01:51:55.167Z,1031.71
2017-12-23T01:53:03.992Z,1031.76
2017-12-23T01:54:12.820Z,1031.77
2017-12-23T01:55:21.919Z,1031.72
2017-12-23T01:56:30.745Z,1031.68
2017-12-23T01:57:39.574Z,1031.69
2017-12-23T01:58:48.649Z,1031.69
2017-12-23T01:59:57.474Z,1031.62
2017-12-23T02:01:06.300Z,1031.69
2017-12-23T02:02:15.125Z,1031.61
2017-12-23T02:03:23.951Z,1031.67
2017-12-23T02:04:32.927Z,1031.67
2017-12-23T02:05:41.752Z,1031.68
2017-12-23T02:06:50.850Z,1031.64
2017-12-23T02:07:59.676Z,1031.68
2017-12-23T02:09:08.502Z,1031.69
2017-12-23T02:10:17.427Z,1031.69
2017-12-23T02:11:26.253Z,1031.7
2017-12-23T02:12:35.080Z,1031.57
2017-12-23T02:13:43.905Z,1031.61
2017-12-23T02:14:52.729Z,1031.53
2017-12-23T02:16:01.710Z,1031.52
2017-12-23T02:17:10.810Z,1031.49
2017-12-23T02:18:19.637Z,1031.44
2017-12-23T02:19:28.464Z,1031.44
2017-12-23T02:20:37.288Z,1031.44
2017-12-23T02:21:46.164Z,1031.45
2017-12-23T02:22:54.990Z,1031.42
2017-12-23T02:24:04.101Z,1031.34
2017-12-23T02:25:12.926Z,1031.31
2017-12-23T02:26:21.753Z,1031.2
2017-12-23T02:27:30.630Z,1031.28
2017-12-23T02:28:39.453Z,1031.21
2017-12-23T02:29:48.285Z,1031.25
2017-12-23T02:30:57.104Z,1031.21
2017-12-23T02:32:05.933Z,1031.23
2017-12-23T02:33:15.058Z,1031.24
2017-12-23T02:34:23.885Z,1031.22
2017-12-23T02:35:32.712Z,1031.16
2017-12-23T02:36:41.544Z,1031.13
2017-12-23T02:37:50.362Z,1031.08
2017-12-23T02:38:59.187Z,1031.05
2017-12-23T02:40:08.013Z,1031.03
2017-12-23T02:41:16.835Z,1031.02
2017-12-23T02:42:25.669Z,1031
2017-12-23T02:43:34.491Z,1030.98
2017-12-23T02:44:43.465Z,1031.02
2017-12-23T02:45:52.289Z,1030.99
2017-12-23T02:47:01.116Z,1030.99
2017-12-23T02:48:09.940Z,1031
2017-12-23T02:49:18.769Z,1031.07
2017-12-23T02:50:27.897Z,1031.05
2017-12-23T02:51:36.723Z,1030.99
2017-12-23T02:52:45.559Z,1030.85
2017-12-23T02:53:54.376Z,1030.82
2017-12-23T02:55:03.203Z,1030.7
2017-12-23T02:56:12.302Z,1030.68
2017-12-23T02:57:21.129Z,1030.63
2017-12-23T02:58:29.959Z,1030.55
2017-12-23T02:59:38.780Z,1030.49
2017-12-23T03:00:47.610Z,1030.53
2017-12-23T03:01:57.084Z,1030.47
2017-12-23T03:03:05.911Z,1030.41
2017-12-23T03:04:14.739Z,1030.39
2017-12-23T03:05:23.567Z,1030.48
2017-12-23T03:06:32.394Z,1030.44
2017-12-23T03:07:41.420Z,1030.43
2017-12-23T03:08:50.248Z,1030.46
2017-12-23T03:09:59.077Z,1030.45
2017-12-23T03:11:07.902Z,1030.42
2017-12-23T03:12:16.730Z,1030.42
2017-12-23T03:13:25.763Z,1030.41
2017-12-23T03:14:34.588Z,1030.38
2017-12-23T03:15:43.415Z,1030.39
2017-12-23T03:16:52.242Z,1030.3
2017-12-23T03:18:01.067Z,1030.28
2017-12-23T03:19:09.993Z,1030.28
2017-12-23T03:20:18.819Z,1030.29
2017-12-23T03:21:27.646Z,1030.29
2017-12-23T03:22:36.471Z,1030.35
2017-12-23T03:23:45.299Z,1030.36
2017-12-23T03:24:54.124Z,1030.41
2017-12-23T03:26:02.950Z,1030.41
2017-12-23T03:27:12.053Z,1030.36
2017-12-23T03:28:20.878Z,1030.29
2017-12-23T03:29:29.702Z,1030.31
2017-12-23T03:30:38.577Z,1030.32
2017-12-23T03:31:47.403Z,1030.36
2017-12-23T03:32:56.229Z,1030.33
2017-12-23T03:34:05.056Z,1030.29
2017-12-23T03:35:13.882Z,1030.31
2017-12-23T03:36:23.008Z,1030.32
2017-12-23T03:37:31.833Z,1030.28
2017-12-23T03:38:40.659Z,1030.23
2017-12-23T03:39:49.490Z,1030.12
2017-12-23T03:40:58.312Z,1030.12
2017-12-23T03:42:07.442Z,1030.1
2017-12-23T03:43:16.265Z,1030.13
2017-12-23T03:44:25.091Z,1030.16
2017-12-23T03:45:33.917Z,1030.12
2017-12-23T03:46:42.747Z,1030.11
2017-12-23T03:47:51.819Z,1030.08
2017-12-23T03:49:00.929Z,1030.05
2017-12-23T03:50:10.026Z,1030.03
2017-12-23T03:51:18.852Z,1030.05
2017-12-23T03:52:27.679Z,1030.09
2017-12-23T03:53:36.607Z,1030.06
2017-12-23T03:54:45.434Z,1030.1
2017-12-23T03:55:54.263Z,1030.09
2017-12-23T03:57:03.087Z,1030.03
2017-12-23T03:58:11.914Z,1030.04
2017-12-23T03:59:21.418Z,1030.04
2017-12-23T04:00:30.245Z,1030.06
2017-12-23T04:01:39.075Z,1029.94
2017-12-23T04:02:48.176Z,1030.06
2017-12-23T04:03:57.339Z,1029.96
2017-12-23T04:05:06.106Z,1029.92
2017-12-23T04:06:14.934Z,1029.85
2017-12-23T04:07:23.760Z,1029.86
2017-12-23T04:08:32.584Z,1029.78
2017-12-23T04:09:41.412Z,1029.69
2017-12-23T04:10:50.389Z,1029.65
2017-12-23T04:11:59.217Z,1029.63
2017-12-23T04:13:08.319Z,1029.64
2017-12-23T04:14:17.144Z,1029.57
2017-12-23T04:15:25.971Z,1029.53
2017-12-23T04:16:34.999Z,1029.5
2017-12-23T04:17:43.822Z,1029.6
2017-12-23T04:18:52.646Z,1029.53
2017-12-23T04:20:01.473Z,1029.52
2017-12-23T04:21:10.576Z,1029.55
2017-12-23T04:22:19.401Z,1029.56
2017-12-23T04:23:28.227Z,1029.54
2017-12-23T04:24:37.051Z,1029.51
2017-12-23T04:25:45.877Z,1029.51
2017-12-23T04:26:54.702Z,1029.5
2017-12-23T04:28:03.631Z,1029.47
2017-12-23T04:29:12.457Z,1029.51
2017-12-23T04:30:21.283Z,1029.32
2017-12-23T04:31:30.386Z,1029.3
2017-12-23T04:32:39.207Z,1029.28
2017-12-23T04:33:48.740Z,1029.26
2017-12-23T04:34:57.567Z,1029.23
2017-12-23T04:36:06.394Z,1029.2
2017-12-23T04:37:15.220Z,1029.16
2017-12-23T04:38:24.045Z,1029.12
2017-12-23T04:39:32.979Z,1029.13
2017-12-23T04:40:41.799Z,1029.18
2017-12-23T04:41:50.626Z,1029.27
2017-12-23T04:42:59.452Z,1029.28
2017-12-23T04:44:08.552Z,1029.26
2017-12-23T04:45:17.380Z,1029.22
2017-12-23T04:46:26.204Z,1029.23
2017-12-23T04:47:35.032Z,1029.26
2017-12-23T04:48:43.859Z,1029.27
2017-12-23T04:49:52.686Z,1029.33
2017-12-23T04:51:01.514Z,1029.35
2017-12-23T04:52:10.340Z,1029.32
2017-12-23T04:53:19.168Z,1029.37
2017-12-23T04:54:28.268Z,1029.27
2017-12-23T04:55:37.094Z,1029.3
2017-12-23T04:56:46.019Z,1029.31
2017-12-23T04:57:54.845Z,1029.31
2017-12-23T04:59:03.674Z,1029.31
2017-12-23T05:00:12.500Z,1029.34
2017-12-23T05:01:21.324Z,1029.33
2017-12-23T05:02:30.299Z,1029.22
2017-12-23T05:03:39.126Z,1029.36
2017-12-23T05:04:47.953Z,1029.2
2017-12-23T05:05:56.777Z,1029.26
2017-12-23T05:07:05.602Z,1029.22
2017-12-23T05:08:14.431Z,1029.16
2017-12-23T05:09:23.256Z,1029.26
2017-12-23T05:10:32.084Z,1029.27
2017-12-23T05:11:40.911Z,1029.27
2017-12-23T05:12:49.736Z,1029.18
2017-12-23T05:13:59.135Z,1029.23
2017-12-23T05:15:07.961Z,1029.27
2017-12-23T05:16:16.786Z,1029.15
2017-12-23T05:17:25.613Z,1029.32
2017-12-23T05:18:34.439Z,1029.27
2017-12-23T05:19:43.364Z,1029.19
2017-12-23T05:20:52.192Z,1029.15
2017-12-23T05:22:01.018Z,1029.08
2017-12-23T05:23:09.845Z,1029.13
2017-12-23T05:24:18.671Z,1029.08
2017-12-23T05:25:27.497Z,1029.01
2017-12-23T05:26:36.595Z,1028.97
2017-12-23T05:27:45.419Z,1029
2017-12-23T05:28:54.248Z,1029
2017-12-23T05:30:03.351Z,1028.98
2017-12-23T05:31:12.551Z,1028.9
2017-12-23T05:32:21.376Z,1028.88
2017-12-23T05:33:30.204Z,1028.88
2017-12-23T05:34:39.301Z,1028.79
2017-12-23T05:35:48.127Z,1028.84
2017-12-23T05:36:57.202Z,1028.85
2017-12-23T05:38:06.031Z,1028.81
2017-12-23T05:39:14.865Z,1028.83
2017-12-23T05:40:23.684Z,1028.87
2017-12-23T05:41:32.510Z,1028.8
2017-12-23T05:42:41.339Z,1028.85
2017-12-23T05:43:50.714Z,1028.82
2017-12-23T05:44:59.541Z,1028.81
2017-12-23T05:46:08.369Z,1028.76
2017-12-23T05:47:17.197Z,1028.74
2017-12-23T05:48:26.023Z,1028.68
2017-12-23T05:49:34.849Z,1028.64
2017-12-23T05:50:43.678Z,1028.71
2017-12-23T05:51:52.504Z,1028.7
2017-12-23T05:53:01.332Z,1028.75
2017-12-23T05:54:10.310Z,1028.75
2017-12-23T05:55:19.136Z,1028.71
2017-12-23T05:56:27.962Z,1028.71
2017-12-23T05:57:36.787Z,1028.71
2017-12-23T05:58:45.613Z,1028.77
2017-12-23T05:59:54.590Z,1028.72
2017-12-23T06:01:03.417Z,1028.73
2017-12-23T06:02:12.241Z,1028.69
2017-12-23T06:03:21.071Z,1028.69
2017-12-23T06:04:29.898Z,1028.71
2017-12-23T06:05:38.773Z,1028.65
2017-12-23T06:06:47.604Z,1028.66
2017-12-23T06:07:56.431Z,1028.6
2017-12-23T06:09:05.257Z,1028.61
2017-12-23T06:10:14.086Z,1028.62
2017-12-23T06:11:23.291Z,1028.59
2017-12-23T06:12:32.118Z,1028.58
2017-12-23T06:13:40.947Z,1028.56
2017-12-23T06:14:49.773Z,1028.57
2017-12-23T06:15:58.603Z,1028.52
2017-12-23T06:17:07.803Z,1028.54
2017-12-23T06:18:16.634Z,1028.49
2017-12-23T06:19:25.733Z,1028.48
2017-12-23T06:20:34.561Z,1028.55
2017-12-23T06:21:43.390Z,1028.55
2017-12-23T06:22:52.217Z,1028.5
2017-12-23T06:24:01.043Z,1028.53
2017-12-23T06:25:09.871Z,1028.57
2017-12-23T06:26:18.747Z,1028.61
2017-12-23T06:27:27.576Z,1028.5
2017-12-23T06:28:36.405Z,1028.51
2017-12-23T06:29:45.232Z,1028.54
2017-12-23T06:30:54.062Z,1028.46
2017-12-23T06:32:02.891Z,1028.57
2017-12-23T06:33:11.993Z,1028.45
2017-12-23T06:34:20.969Z,1028.49
2017-12-23T06:35:29.796Z,1028.34
2017-12-23T06:36:38.917Z,1028.4
2017-12-23T06:37:47.739Z,1028.41
2017-12-23T06:38:56.569Z,1028.45
2017-12-23T06:40:05.546Z,1028.42
2017-12-23T06:41:14.647Z,1028.35
2017-12-23T06:42:23.754Z,1028.42
2017-12-23T06:43:32.582Z,1028.45
2017-12-23T06:44:41.410Z,1028.42
2017-12-23T06:45:50.338Z,1028.44
2017-12-23T06:46:59.224Z,1028.54
2017-12-23T06:48:07.995Z,1028.51
2017-12-23T06:49:16.824Z,1028.44
2017-12-23T06:50:25.659Z,1028.52
2017-12-23T06:51:34.733Z,1028.49
2017-12-23T06:52:43.836Z,1028.47
2017-12-23T06:53:52.665Z,1028.38
2017-12-23T06:55:01.494Z,1028.34
2017-12-23T06:56:10.320Z,1028.45
2017-12-23T06:57:19.301Z,1028.42
2017-12-23T06:58:28.130Z,1028.45
2017-12-23T06:59:36.958Z,1028.43
2017-12-23T07:00:45.788Z,1028.36
2017-12-23T07:01:54.616Z,1028.33
2017-12-23T07:03:03.695Z,1028.38
2017-12-23T07:04:12.797Z,1028.33
2017-12-23T07:05:21.622Z,1028.34
2017-12-23T07:06:30.727Z,1028.35
2017-12-23T07:07:39.551Z,1028.31
2017-12-23T07:08:48.530Z,1028.22
2017-12-23T07:09:57.358Z,1028.2
2017-12-23T07:11:06.190Z,1028.25
2017-12-23T07:12:15.288Z,1028.19
2017-12-23T07:13:24.117Z,1028.24
2017-12-23T07:14:33.194Z,1028.16
2017-12-23T07:15:42.020Z,1028.13
2017-12-23T07:16:50.850Z,1028.16
2017-12-23T07:17:59.680Z,1028.08
2017-12-23T07:19:08.505Z,1028.12
2017-12-23T07:20:17.381Z,1028.05
2017-12-23T07:21:26.211Z,1027.98
2017-12-23T07:22:35.037Z,1028.04
2017-12-23T07:23:43.864Z,1028.02
2017-12-23T07:24:52.694Z,1027.93
2017-12-23T07:26:01.670Z,1028.05
2017-12-23T07:27:10.500Z,1028.03
2017-12-23T07:28:19.326Z,1027.9
2017-12-23T07:29:28.154Z,1027.92
2017-12-23T07:30:36.981Z,1028.01
2017-12-23T07:31:45.810Z,1028.02
2017-12-23T07:32:54.636Z,1027.99
2017-12-23T07:34:03.473Z,1027.94
2017-12-23T07:35:12.295Z,1027.97
2017-12-23T07:36:21.122Z,1027.9
2017-12-23T07:37:30.006Z,1028.01
2017-12-23T07:38:38.834Z,1027.96
2017-12-23T07:39:47.937Z,1028.02
2017-12-23T07:40:56.765Z,1027.93
2017-12-23T07:42:05.594Z,1027.98
2017-12-23T07:43:14.728Z,1028.05
2017-12-23T07:44:23.550Z,1028.21
2017-12-23T07:45:32.381Z,1028.05
2017-12-23T07:46:41.209Z,1028.07
2017-12-23T07:47:50.036Z,1028.09
2017-12-23T07:48:59.015Z,1028
2017-12-23T07:50:07.846Z,1028.11
2017-12-23T07:51:16.703Z,1028.16
2017-12-23T07:52:25.538Z,1028.11
2017-12-23T07:53:34.367Z,1028.1
2017-12-23T07:54:43.196Z,1028.25
2017-12-23T07:55:52.026Z,1028.16
2017-12-23T07:57:00.853Z,1028.09
2017-12-23T07:58:09.962Z,1027.99
2017-12-23T07:59:19.113Z,1028.07
2017-12-23T08:00:27.990Z,1028.23
2017-12-23T08:01:36.820Z,1028.25
2017-12-23T08:02:45.921Z,1028.12
2017-12-23T08:03:55.020Z,1028.29
2017-12-23T08:05:03.849Z,1028.01
2017-12-23T08:06:12.828Z,1028.2
2017-12-23T08:07:21.657Z,1028.02
2017-12-23T08:08:30.489Z,1027.97
2017-12-23T08:09:39.317Z,1028.09
2017-12-23T08:10:48.148Z,1028.11
2017-12-23T08:11:57.080Z,1028.04
2017-12-23T08:13:05.911Z,1028.05
2017-12-23T08:14:14.735Z,1028
2017-12-23T08:15:23.563Z,1028.02
2017-12-23T08:16:32.390Z,1028.04
2017-12-23T08:17:41.370Z,1028.08
2017-12-23T08:18:50.198Z,1028.15
2017-12-23T08:19:59.306Z,1028.14
2017-12-23T08:21:08.408Z,1028.11
2017-12-23T08:22:17.237Z,1028.14
2017-12-23T08:23:26.116Z,1028.15
2017-12-23T08:24:34.944Z,1028.21
2017-12-23T08:25:43.772Z,1028.17
2017-12-23T08:26:52.601Z,1028.16
2017-12-23T08:28:01.430Z,1028.12
2017-12-23T08:29:10.361Z,1028.29
2017-12-23T08:30:19.187Z,1028.27
2017-12-23T08:31:28.018Z,1028.27
2017-12-23T08:32:36.847Z,1028.45
2017-12-23T08:33:45.677Z,1028.39
2017-12-23T08:34:54.567Z,1028.29
2017-12-23T08:36:03.391Z,1028.36
2017-12-23T08:37:12.218Z,1028.33
2017-12-23T08:38:21.045Z,1028.29
2017-12-23T08:39:29.874Z,1028.36
2017-12-23T08:40:38.801Z,1028.44
2017-12-23T08:41:47.581Z,1028.37
2017-12-23T08:42:56.409Z,1028.28
2017-12-23T08:44:05.240Z,1028.32
2017-12-23T08:45:14.071Z,1028.28
2017-12-23T08:46:22.903Z,1028.28
2017-12-23T08:47:31.733Z,1028.26
2017-12-23T08:48:40.836Z,1028.26
2017-12-23T08:49:49.670Z,1028.16
2017-12-23T08:50:58.504Z,1028.13
2017-12-23T08:52:07.610Z,1028.17
2017-12-23T08:53:16.440Z,1028.21
2017-12-23T08:54:25.267Z,1028.24
2017-12-23T08:55:34.097Z,1028.3
2017-12-23T08:56:42.929Z,1028.26
2017-12-23T08:57:51.754Z,1028.31
2017-12-23T08:59:00.585Z,1028.45
2017-12-23T09:00:09.414Z,1028.24
2017-12-23T09:01:18.244Z,1028.25
2017-12-23T09:02:27.072Z,1028.24
2017-12-23T09:03:35.900Z,1028.18
2017-12-23T09:04:44.736Z,1028.2
2017-12-23T09:05:53.563Z,1028.23
2017-12-23T09:07:02.391Z,1028.17
2017-12-23T09:08:11.220Z,1028.09
2017-12-23T09:09:20.050Z,1028.16
2017-12-23T09:10:28.878Z,1028.13
2017-12-23T09:11:37.707Z,1028.04
2017-12-23T09:12:46.537Z,1028.1
2017-12-23T09:13:55.640Z,1028.16
2017-12-23T09:15:04.487Z,1028.04
2017-12-23T09:16:13.300Z,1027.99
2017-12-23T09:17:22.233Z,1028
2017-12-23T09:18:31.063Z,1028.13
2017-12-23T09:19:39.893Z,1028.13
2017-12-23T09:20:48.722Z,1028.11
2017-12-23T09:21:57.551Z,1028.09
2017-12-23T09:23:06.429Z,1028.28
2017-12-23T09:24:15.258Z,1028.24
2017-12-23T09:25:24.085Z,1028.22
2017-12-23T09:26:32.914Z,1028.17
2017-12-23T09:27:41.747Z,1028.27
2017-12-23T09:28:50.726Z,1028.23
2017-12-23T09:29:59.560Z,1028.26
2017-12-23T09:31:08.391Z,1028.25
2017-12-23T09:32:17.219Z,1028.25
2017-12-23T09:33:26.048Z,1028.21
2017-12-23T09:34:34.983Z,1028.19
2017-12-23T09:35:43.809Z,1028.23
2017-12-23T09:36:52.635Z,1028.19
2017-12-23T09:38:01.464Z,1028.18
2017-12-23T09:39:10.293Z,1028.2
2017-12-23T09:40:19.597Z,1028.19
2017-12-23T09:41:28.472Z,1028.19
2017-12-23T09:42:37.839Z,1028.15
2017-12-23T09:43:46.668Z,1028.12
2017-12-23T09:44:55.771Z,1028.09
2017-12-23T09:46:05.423Z,1028.11
2017-12-23T09:47:14.261Z,1028.07
2017-12-23T09:48:23.093Z,1028.1
2017-12-23T09:49:31.919Z,1028.03
2017-12-23T09:50:40.747Z,1028.03
2017-12-23T09:51:50.261Z,1028.04
2017-12-23T09:52:59.090Z,1028.12
2017-12-23T09:54:07.918Z,1027.97
2017-12-23T09:55:16.744Z,1028.08
2017-12-23T09:56:25.572Z,1028.02
2017-12-23T09:57:34.404Z,1027.94
2017-12-23T09:58:43.231Z,1027.95
2017-12-23T09:59:52.060Z,1027.91
2017-12-23T10:01:00.886Z,1027.95
2017-12-23T10:02:09.716Z,1027.96
2017-12-23T10:03:18.797Z,1027.97
2017-12-23T10:04:27.627Z,1027.91
2017-12-23T10:05:36.457Z,1027.9
2017-12-23T10:06:45.290Z,1027.96
2017-12-23T10:07:54.126Z,1027.88
2017-12-23T10:09:03.083Z,1027.99
2017-12-23T10:10:11.999Z,1027.91
2017-12-23T10:11:20.829Z,1027.96
2017-12-23T10:12:29.687Z,1027.86
2017-12-23T10:13:38.829Z,1027.83
2017-12-23T10:14:47.857Z,1027.73
2017-12-23T10:15:57.023Z,1027.76
2017-12-23T10:17:05.815Z,1027.71
2017-12-23T10:18:14.656Z,1027.65
2017-12-23T10:19:23.538Z,1027.65
2017-12-23T10:20:32.651Z,1027.59
2017-12-23T10:21:41.480Z,1027.59
2017-12-23T10:22:50.316Z,1027.72
2017-12-23T10:23:59.139Z,1027.63
2017-12-23T10:25:07.999Z,1027.67
2017-12-23T10:26:16.877Z,1027.68
2017-12-23T10:27:25.707Z,1027.79
2017-12-23T10:28:34.569Z,1027.73
2017-12-23T10:29:43.403Z,1027.77
2017-12-23T10:30:52.283Z,1027.85
2017-12-23T10:32:01.112Z,1027.81
2017-12-23T10:33:10.213Z,1027.8
2017-12-23T10:34:19.320Z,1027.65
2017-12-23T10:35:28.358Z,1027.61
2017-12-23T10:36:37.240Z,1027.69
2017-12-23T10:37:46.527Z,1027.61
2017-12-23T10:38:55.397Z,1027.59
2017-12-23T10:40:04.225Z,1027.62
2017-12-23T10:41:13.083Z,1027.68
2017-12-23T10:42:22.205Z,1027.75
2017-12-23T10:43:31.785Z,1027.57
2017-12-23T10:44:41.026Z,1027.65
2017-12-23T10:45:50.032Z,1027.67
2017-12-23T10:46:59.077Z,1027.57
2017-12-23T10:48:07.924Z,1027.58
2017-12-23T10:49:16.755Z,1027.49
2017-12-23T10:50:25.858Z,1027.44
2017-12-23T10:51:34.689Z,1027.52
2017-12-23T10:52:43.520Z,1027.52
2017-12-23T10:53:52.348Z,1027.4
2017-12-23T10:55:01.226Z,1027.42
2017-12-23T10:56:10.054Z,1027.43
2017-12-23T10:57:19.174Z,1027.4
2017-12-23T10:58:28.022Z,1027.35
2017-12-23T10:59:36.826Z,1027.3
2017-12-23T11:00:45.654Z,1027.35
2017-12-23T11:01:54.482Z,1027.38
2017-12-23T11:03:03.313Z,1027.31
2017-12-23T11:04:12.143Z,1027.36
2017-12-23T11:05:20.974Z,1027.35
2017-12-23T11:06:30.102Z,1027.23
2017-12-23T11:07:38.930Z,1027.18
2017-12-23T11:08:47.759Z,1027.25
2017-12-23T11:09:56.585Z,1027.16
2017-12-23T11:11:05.415Z,1027.18
2017-12-23T11:12:14.342Z,1027.18
2017-12-23T11:13:23.170Z,1027.15
2017-12-23T11:14:32.279Z,1027.13
2017-12-23T11:15:41.109Z,1027.15
2017-12-23T11:16:49.940Z,1027.12
2017-12-23T11:17:58.867Z,1027.02
2017-12-23T11:19:07.698Z,1027.08
2017-12-23T11:20:16.530Z,1026.97
2017-12-23T11:21:25.361Z,1027.05
2017-12-23T11:22:34.192Z,1027.06
2017-12-23T11:23:43.125Z,1027.01
2017-12-23T11:24:51.952Z,1027.08
2017-12-23T11:26:01.058Z,1027.03
2017-12-23T11:27:09.888Z,1027.06
2017-12-23T11:28:18.715Z,1027
2017-12-23T11:29:27.646Z,1027.1
2017-12-23T11:30:36.475Z,1027.05
2017-12-23T11:31:45.305Z,1027.1
2017-12-23T11:32:54.133Z,1027.02
2017-12-23T11:34:02.964Z,1027
2017-12-23T11:35:12.196Z,1027.08
2017-12-23T11:36:21.026Z,1027.15
2017-12-23T11:37:29.856Z,1026.95
2017-12-23T11:38:38.688Z,1027.02
2017-12-23T11:39:47.514Z,1026.97
2017-12-23T11:40:56.746Z,1026.99
2017-12-23T11:42:05.850Z,1027.03
2017-12-23T11:43:14.680Z,1027
2017-12-23T11:44:23.512Z,1027.04
2017-12-23T11:45:32.623Z,1027
2017-12-23T11:46:41.503Z,1026.95
2017-12-23T11:47:50.607Z,1026.94
2017-12-23T11:48:59.438Z,1026.97
2017-12-23T11:50:08.268Z,1026.98
2017-12-23T11:51:17.097Z,1026.83
2017-12-23T11:52:26.073Z,1026.82
2017-12-23T11:53:34.941Z,1026.89
2017-12-23T11:54:43.924Z,1026.9
2017-12-23T11:55:52.755Z,1026.89
2017-12-23T11:57:01.584Z,1026.84
2017-12-23T11:58:10.463Z,1026.82
2017-12-23T11:59:19.291Z,1026.83
2017-12-23T12:00:28.127Z,1026.72
2017-12-23T12:01:36.952Z,1026.61
2017-12-23T12:02:45.781Z,1026.67
2017-12-23T12:03:54.735Z,1026.68
2017-12-23T12:05:03.567Z,1026.7
2017-12-23T12:06:12.398Z,1026.69
2017-12-23T12:07:21.237Z,1026.69
2017-12-23T12:08:30.340Z,1026.58
2017-12-23T12:09:39.321Z,1026.75
2017-12-23T12:10:48.153Z,1026.57
2017-12-23T12:11:56.981Z,1026.63
2017-12-23T12:13:05.811Z,1026.67
2017-12-23T12:14:14.925Z,1026.53
2017-12-23T12:15:24.192Z,1026.5
2017-12-23T12:16:33.022Z,1026.56
2017-12-23T12:17:42.139Z,1026.49
2017-12-23T12:18:50.969Z,1026.51
2017-12-23T12:19:59.797Z,1026.52
2017-12-23T12:21:08.757Z,1026.55
2017-12-23T12:22:17.582Z,1026.49
2017-12-23T12:23:26.411Z,1026.49
2017-12-23T12:24:35.242Z,1026.42
2017-12-23T12:25:44.093Z,1026.35
2017-12-23T12:26:53.027Z,1026.34
2017-12-23T12:28:01.866Z,1026.45
2017-12-23T12:29:10.696Z,1026.43
2017-12-23T12:30:19.531Z,1026.38
2017-12-23T12:31:28.360Z,1026.34
2017-12-23T12:32:37.292Z,1026.41
2017-12-23T12:33:46.120Z,1026.41
2017-12-23T12:34:54.950Z,1026.4
2017-12-23T12:36:04.060Z,1026.44
2017-12-23T12:37:12.892Z,1026.39
2017-12-23T12:38:21.874Z,1026.41
2017-12-23T12:39:30.706Z,1026.36
2017-12-23T12:40:39.536Z,1026.4
2017-12-23T12:41:48.380Z,1026.48
2017-12-23T12:42:57.495Z,1026.34
2017-12-23T12:44:06.328Z,1026.4
2017-12-23T12:45:15.201Z,1026.39
2017-12-23T12:46:23.989Z,1026.38
2017-12-23T12:47:32.820Z,1026.44
2017-12-23T12:48:42.039Z,1026.42
2017-12-23T12:49:50.920Z,1026.37
2017-12-23T12:50:59.771Z,1026.31
2017-12-23T12:52:08.599Z,1026.28
2017-12-23T12:53:17.433Z,1026.37
2017-12-23T12:54:26.270Z,1026.33
2017-12-23T12:55:35.399Z,1026.33
2017-12-23T12:56:44.232Z,1026.28
2017-12-23T12:57:53.067Z,1026.23
2017-12-23T12:59:01.899Z,1026.24
2017-12-23T13:00:10.779Z,1026.22
2017-12-23T13:01:19.610Z,1026.29
2017-12-23T13:02:28.445Z,1026.25
2017-12-23T13:03:37.549Z,1026.29
2017-12-23T13:04:46.382Z,1026.29
2017-12-23T13:05:55.214Z,1026.33
2017-12-23T13:07:04.242Z,1026.16
2017-12-23T13:08:13.078Z,1026.26
2017-12-23T13:09:22.180Z,1026.39
2017-12-23T13:10:31.015Z,1026.35
2017-12-23T13:11:40.117Z,1026.29
2017-12-23T13:12:49.049Z,1026.24
2017-12-23T13:13:57.879Z,1026.22
2017-12-23T13:15:06.710Z,1026.23
2017-12-23T13:16:15.539Z,1026.22
2017-12-23T13:17:24.370Z,1026.22
2017-12-23T13:18:33.300Z,1026.21
2017-12-23T13:19:42.128Z,1026.21
2017-12-23T13:20:50.957Z,1026.23
2017-12-23T13:21:59.789Z,1026.23
2017-12-23T13:23:08.619Z,1026.27
2017-12-23T13:24:17.501Z,1026.26
2017-12-23T13:25:26.330Z,1026.27
2017-12-23T13:26:35.160Z,1026.2
2017-12-23T13:27:43.988Z,1026.16
2017-12-23T13:28:52.819Z,1026.27
2017-12-23T13:30:01.700Z,1026.18
2017-12-23T13:31:10.807Z,1026.16
2017-12-23T13:32:19.635Z,1026.09
2017-12-23T13:33:28.752Z,1026.1
2017-12-23T13:34:37.581Z,1026.07
2017-12-23T13:35:46.854Z,1026.05
2017-12-23T13:36:55.679Z,1026.12
2017-12-23T13:38:04.510Z,1026.22
2017-12-23T13:39:13.349Z,1026.09
2017-12-23T13:40:22.179Z,1026.07
2017-12-23T13:41:31.396Z,1026.12
2017-12-23T13:42:40.499Z,1026.06
2017-12-23T13:43:49.684Z,1026.05
2017-12-23T13:44:58.790Z,1026.02
2017-12-23T13:46:07.621Z,1026.01
2017-12-23T13:47:16.602Z,1025.98
2017-12-23T13:48:25.435Z,1026.02
2017-12-23T13:49:34.265Z,1026.03
2017-12-23T13:50:43.096Z,1026.01
2017-12-23T13:51:51.924Z,1026
2017-12-23T13:53:01.157Z,1026.03
2017-12-23T13:54:09.986Z,1026.06
2017-12-23T13:55:18.815Z,1026.08
2017-12-23T13:56:27.681Z,1026.12